Riceville, Mississippi
Current Conditions -  °F | °C
As of 12:53 PM on Friday 21 Nov 2014 (Local Time) from KGPT Reporting Station
Few Clouds Few Clouds  
Wind Chill: 68°   Ceiling: Unl
Heat Index: 68°   Visibility: 10mi
Dew Point: 49°   Wind: 16mph
Humidity: 50%   Direction: 120°ESE
Pressure: 30.28"   Gusts: NA
Location:  30.7239°N, 89.1669°W
Report Text: KGPT 211853Z 12014KT 10SM FEW035 20/09 A3028 RMK AO2 SLP251 T02000094
Loading
Personal Weather Stations






























Interactive Weather Map New forecast layout! Learn more

10-Day Weather Forecast

Advertisements
Track Severe Weather on mobile